Terminal Aerodrome Forecast
Issued by NWS

Home | Current Version | Previous Version | Text Only | Print | Product List | Glossary On
Versions: 1 2 3 4 5 6 7 8 9 10 11 12 13 14
000
FTUS44 KLZK 230500
TAFLIT
TAF
KLIT 230534Z 2306/2406 20004KT P6SM SKC
      TEMPO 2311/2315 SCT012
     FM231600 24007KT P6SM SCT040
     FM240100 18004KT P6SM SKC=

USA.gov is the U.S. government's official web portal to all federal, state and local government web resources and services.